CST,Max TemperatureF,Mean TemperatureF,Min TemperatureF,Max Dew PointF,MeanDew PointF,Min DewpointF,Max Humidity, Mean Humidity, Min Humidity, Max Sea Level PressureIn, Mean Sea Level PressureIn, Min Sea Level PressureIn, Max VisibilityMiles, Mean VisibilityMiles, Min VisibilityMiles, Max Wind SpeedMPH, Mean Wind SpeedMPH, Max Gust SpeedMPH,PrecipitationIn, CloudCover, Events, WindDirDegrees
2013-2-1,46,34,21,21,14,7,74,48,27,30.49,30.37,30.21,10,10,10,16,5,22,0.00,0,,85
2013-2-2,59,44,28,32,26,19,100,60,34,30.29,30.24,30.20,10,10,10,12,4,20,0.00,0,,286
2013-2-3,60,44,28,36,27,18,100,59,22,30.31,30.20,30.01,10,10,10,8,2,,0.00,0,,94
2013-2-4,60,51,41,46,41,28,100,71,50,30.00,29.92,29.85,10,9,0,10,5,,0.07,4,Fog-Rain-Thunderstorm,100
2013-2-5,60,46,33,50,42,34,100,92,63,30.06,30.00,29.93,10,3,0,8,1,,0.00,5,Fog,237
2013-2-6,64,50,35,45,39,36,100,68,42,30.11,30.04,29.96,10,10,0,17,7,22,0.00,2,Fog,88
2013-2-7,60,54,48,54,48,43,94,80,72,30.08,29.94,29.87,10,9,4,14,7,18,0.36,7,Rain-Thunderstorm,69
2013-2-8,55,46,37,41,35,32,87,68,41,30.30,30.22,30.09,10,9,5,8,5,,0.00,1,,355
2013-2-9,44,40,35,39,34,32,87,78,66,30.22,30.09,29.85,10,9,5,17,11,26,0.02,4,Rain-Thunderstorm,100
2013-2-10,62,52,42,52,38,28,100,63,31,30.08,29.81,29.67,10,8,2,17,11,24,0.66,3,Rain-Thunderstorm,266
2013-2-11,57,45,33,34,29,25,87,60,29,30.23,30.14,30.07,10,10,10,8,2,,0.00,0,,324
2013-2-12,44,40,37,39,35,30,100,81,61,30.14,30.02,29.93,10,9,3,16,4,20,0.46,4,Rain,51
2013-2-13,55,44,33,37,35,32,100,77,41,30.09,30.01,29.97,10,10,7,13,5,18,0.00,4,Rain,273
2013-2-14,62,46,30,37,32,30,100,65,32,30.17,30.05,30.00,10,10,10,10,3,16,0.00,0,,302
2013-2-15,50,40,28,36,24,14,76,56,31,30.37,30.31,30.18,10,10,10,15,8,23,0.01,0,Rain,330
2013-2-16,41,34,28,27,19,10,80,56,29,30.38,30.28,30.16,10,10,10,12,4,16,0.00,1,,282
2013-2-17,69,50,32,32,26,19,64,41,18,30.16,30.02,29.87,10,10,10,20,8,25,0.00,0,,124
2013-2-18,68,55,41,52,40,28,77,55,34,30.17,29.83,29.62,10,10,4,29,15,38,0.13,3,Rain-Thunderstorm,228
2013-2-19,51,40,30,27,24,19,86,56,30,30.35,30.27,30.17,10,10,10,10,4,20,0.00,0,,10
2013-2-20,39,36,32,32,30,23,100,86,52,30.30,30.20,30.05,10,6,0,17,6,24,0.57,6,Snow-Thunderstorm,89
2013-2-21,33,32,32,34,32,28,100,94,87,30.05,29.84,29.70,10,8,2,16,9,24,0.13,8,Rain-Snow-Thunderstorm,96
2013-2-22,41,34,26,36,25,19,100,72,53,30.17,30.08,29.95,10,10,10,21,9,25,0.00,1,,283
2013-2-23,46,35,24,30,26,21,100,73,39,30.13,30.04,29.97,10,9,4,7,1,,0.00,0,,264
2013-2-24,60,45,30,36,32,28,100,64,34,30.01,29.92,29.80,10,10,10,17,8,24,0.00,0,,91
2013-2-25,48,45,42,45,38,32,100,79,54,29.85,29.59,29.39,10,9,2,28,11,36,0.74,7,Rain-Thunderstorm,89
2013-2-26,42,38,35,43,34,32,100,82,70,29.92,29.67,29.39,10,8,4,21,13,28,0.01,8,Rain,296
2013-2-27,50,42,33,32,31,27,93,74,40,30.15,30.04,29.92,10,8,4,18,7,26,0.00,3,,290
2013-2-28,48,39,30,30,29,28,93,71,50,30.21,30.19,30.15,10,10,7,16,8,23,0.00,2,,313